Time;durP1;ratioP1;P1;durP2;ratioP2;P2;SDS_P1;SDS_P2;PMS_P1;PMS_P2;Temp;Humidity;BMP_temperature;BMP_pressure;BME280_temperature;BME280_humidity;BME280_pressure;Samples;Min_cycle;Max_cycle;Signal;HPM_P1;HPM_P2
2021/04/28 00:00:42;;;;;;;7.80;6.13;;;6.90;98.20;;;;;;5061306;28;20253;-80
2021/04/28 00:03:12;;;;;;;10.43;6.72;;;7.30;97.40;;;;;;5061686;28;20424;-81
2021/04/28 00:05:38;;;;;;;7.13;5.63;;;7.30;97.20;;;;;;5062993;28;20292;-81
2021/04/28 00:08:06;;;;;;;6.45;5.82;;;7.00;68.70;;;;;;5063447;28;20243;-79
2021/04/28 00:10:36;;;;;;;8.45;6.50;;;6.90;68.80;;;;;;5064335;28;20226;-79
2021/04/28 00:13:03;;;;;;;9.00;6.13;;;7.00;97.40;;;;;;5062332;28;20564;-78
2021/04/28 00:15:32;;;;;;;5.43;4.93;;;6.50;97.20;;;;;;5061518;28;20310;-80
2021/04/28 00:17:59;;;;;;;9.02;5.78;;;7.20;97.90;;;;;;5060902;28;20226;-80
2021/04/28 00:20:26;;;;;;;6.43;5.65;;;7.20;97.70;;;;;;5061936;28;20678;-79
2021/04/28 00:22:53;;;;;;;6.32;5.70;;;;;;;;;;5062036;28;20211;-80
2021/04/28 00:25:21;;;;;;;7.10;5.82;;;6.60;97.50;;;;;;5061534;28;20246;-82
2021/04/28 00:27:47;;;;;;;6.22;5.30;;;7.60;70.40;;;;;;5061967;28;20648;-81
2021/04/28 00:30:16;;;;;;;5.60;5.07;;;6.80;97.60;;;;;;5061885;28;20222;-81
2021/04/28 00:32:42;;;;;;;7.80;6.30;;;6.60;97.40;;;;;;5061350;28;20207;-81
2021/04/28 00:35:11;;;;;;;9.25;6.80;;;6.80;97.40;;;;;;5062296;28;20577;-80
2021/04/28 00:37:37;;;;;;;7.10;6.50;;;6.50;97.30;;;;;;5062873;28;20227;-80
2021/04/28 00:40:06;;;;;;;10.63;6.80;;;5.30;97.10;;;;;;5071389;28;20203;-79
2021/04/28 00:42:32;;;;;;;7.38;6.50;;;6.70;76.10;;;;;;5065370;28;20211;-81
2021/04/28 00:44:59;;;;;;;8.13;6.05;;;6.50;97.70;;;;;;5063017;28;20207;-79
2021/04/28 00:47:25;;;;;;;10.30;6.10;;;6.80;98.20;;;;;;5062140;28;20246;-81
2021/04/28 00:49:51;;;;;;;8.38;6.35;;;6.10;97.50;;;;;;5063007;28;20207;-79
2021/04/28 00:52:18;;;;;;;7.35;6.07;;;6.10;97.60;;;;;;5063642;28;20203;-80
2021/04/28 00:54:45;;;;;;;8.40;6.18;;;6.20;98.70;;;;;;5064791;28;20203;-79
2021/04/28 00:57:11;;;;;;;10.77;6.82;;;6.50;98.10;;;;;;5061454;28;20206;-81
2021/04/28 00:59:37;;;;;;;11.82;6.35;;;6.60;98.00;;;;;;5062516;28;20560;-80
2021/04/28 01:02:03;;;;;;;6.47;5.80;;;6.70;98.30;;;;;;5064527;28;20207;-80
2021/04/28 01:04:30;;;;;;;10.82;6.30;;;6.60;98.20;;;;;;5054600;28;20230;-78
2021/04/28 01:06:56;;;;;;;6.90;6.00;;;;;;;;;;5057298;28;20203;-80
2021/04/28 01:09:24;;;;;;;7.88;7.10;;;6.10;98.20;;;;;;5057636;28;20718;-80
2021/04/28 01:11:51;;;;;;;12.45;6.10;;;5.90;98.00;;;;;;5058781;28;20223;-80
2021/04/28 01:14:18;;;;;;;8.10;6.63;;;6.10;98.50;;;;;;5059096;28;20199;-80
2021/04/28 01:16:44;;;;;;;7.60;6.20;;;5.90;98.30;;;;;;5057113;28;20233;-80
2021/04/28 01:19:11;;;;;;;8.13;6.13;;;6.20;98.60;;;;;;5057351;28;20230;-79
2021/04/28 01:21:38;;;;;;;7.65;6.40;;;;;;;;;;5061913;28;20207;-79
2021/04/28 01:24:06;;;;;;;8.85;6.63;;;6.30;79.20;;;;;;5069976;28;20202;-79
2021/04/28 01:26:33;;;;;;;8.82;5.82;;;6.30;99.00;;;;;;5065203;28;20214;-79
2021/04/28 01:29:01;;;;;;;8.82;6.05;;;6.30;99.00;;;;;;5064091;28;20571;-80
2021/04/28 01:31:29;;;;;;;7.45;6.22;;;6.40;99.20;;;;;;5065229;28;20226;-80
2021/04/28 01:33:58;;;;;;;11.23;7.82;;;6.00;72.90;;;;;;5065621;28;20569;-81
2021/04/28 01:36:27;;;;;;;9.45;7.05;;;5.80;99.10;;;;;;5065393;28;20214;-79
2021/04/28 01:38:56;;;;;;;8.77;6.30;;;5.80;99.00;;;;;;5064916;28;20227;-80
2021/04/28 01:41:25;;;;;;;9.07;5.70;;;5.70;98.80;;;;;;5064853;28;20195;-80
2021/04/28 01:43:52;;;;;;;7.93;6.18;;;5.90;73.40;;;;;;5064976;28;20207;-80
2021/04/28 01:46:19;;;;;;;9.13;6.40;;;5.50;99.30;;;;;;5064766;28;20211;-80
2021/04/28 01:48:46;;;;;;;9.02;7.75;;;6.00;99.90;;;;;;5064852;28;20715;-79
2021/04/28 01:51:14;;;;;;;9.32;7.07;;;5.90;73.60;;;;;;5065197;28;20245;-79
2021/04/28 01:53:42;;;;;;;9.38;6.90;;;5.90;73.50;;;;;;5067055;28;20214;-78
2021/04/28 01:56:10;;;;;;;8.90;5.90;;;6.20;99.70;;;;;;5069602;28;20226;-77
2021/04/28 01:58:39;;;;;;;6.70;5.50;;;5.70;99.90;;;;;;5070726;28;20231;-79
2021/04/28 02:01:06;;;;;;;8.60;6.60;;;5.70;99.90;;;;;;5068939;28;20199;-81
2021/04/28 02:03:33;;;;;;;9.57;5.93;;;5.50;99.80;;;;;;5065225;28;20586;-79
2021/04/28 02:06:01;;;;;;;7.45;6.65;;;5.70;99.90;;;;;;5067258;28;20199;-79
2021/04/28 02:08:27;;;;;;;7.85;7.15;;;5.60;99.90;;;;;;5058720;28;20316;-80
2021/04/28 02:10:54;;;;;;;9.95;6.00;;;5.90;99.90;;;;;;5062312;28;20227;-80
2021/04/28 02:13:22;;;;;;;10.57;6.72;;;6.70;99.90;;;;;;5064962;28;20203;-79
2021/04/28 02:15:51;;;;;;;11.10;7.75;;;5.60;99.90;;;;;;5064318;28;20221;-79
2021/04/28 02:18:18;;;;;;;9.13;6.07;;;5.60;75.10;;;;;;5061359;28;20258;-79
2021/04/28 02:20:45;;;;;;;8.55;7.38;;;5.60;99.90;;;;;;5061755;28;20195;-79
2021/04/28 02:23:13;;;;;;;10.00;6.82;;;5.60;99.90;;;;;;5062082;28;20211;-79
2021/04/28 02:25:39;;;;;;;10.38;7.38;;;5.60;99.90;;;;;;5061553;28;20214;-80
2021/04/28 02:28:06;;;;;;;9.50;6.93;;;;;;;;;;5063758;28;20230;-79
2021/04/28 02:30:34;;;;;;;8.15;7.30;;;5.70;99.90;;;;;;5063602;28;20226;-80
2021/04/28 02:33:01;;;;;;;10.68;7.30;;;5.40;99.90;;;;;;5063376;28;20210;-79
2021/04/28 02:35:28;;;;;;;10.45;7.30;;;5.80;99.90;;;;;;5062575;28;20206;-79
2021/04/28 02:38:00;;;;;;;12.57;7.60;;;5.50;99.90;;;;;;5062843;28;20251;-79
2021/04/28 02:40:26;;;;;;;9.05;6.88;;;;;;;;;;5063186;28;20179;-81
2021/04/28 02:42:53;;;;;;;11.65;8.07;;;5.50;99.90;;;;;;5063058;28;20207;-80
2021/04/28 02:45:21;;;;;;;7.95;7.15;;;5.30;99.90;;;;;;5063007;28;20199;-80
2021/04/28 02:47:50;;;;;;;8.38;7.10;;;4.90;99.90;;;;;;5062590;28;20234;-79
2021/04/28 02:50:19;;;;;;;9.63;6.63;;;5.40;84.20;;;;;;5063169;28;20225;-81
2021/04/28 02:52:47;;;;;;;9.65;7.75;;;5.30;99.90;;;;;;5063678;28;20199;-80
2021/04/28 02:55:14;;;;;;;10.15;7.15;;;5.20;99.90;;;;;;5063803;28;20577;-81
2021/04/28 02:57:41;;;;;;;12.95;7.07;;;;;;;;;;5062541;28;20735;-81
2021/04/28 03:00:10;;;;;;;11.02;7.65;;;5.30;78.20;;;;;;5064192;28;20298;-79
2021/04/28 03:02:37;;;;;;;8.80;8.00;;;4.90;99.90;;;;;;5063318;28;20278;-80
2021/04/28 03:05:04;;;;;;;12.45;8.98;;;5.50;99.90;;;;;;5065407;28;20207;-81
2021/04/28 03:07:32;;;;;;;14.68;8.95;;;4.90;99.90;;;;;;5068322;28;20282;-78
2021/04/28 03:10:00;;;;;;;8.05;7.10;;;5.40;99.90;;;;;;5070316;28;20245;-79
2021/04/28 03:12:27;;;;;;;10.48;7.10;;;5.10;79.00;;;;;;5069753;28;20285;-78
2021/04/28 03:14:54;;;;;;;9.50;7.88;;;5.30;99.90;;;;;;5070950;28;20211;-78
2021/04/28 03:17:20;;;;;;;9.07;8.20;;;4.60;99.90;;;;;;5069370;28;20214;-79
2021/04/28 03:19:49;;;;;;;14.55;7.60;;;4.90;99.90;;;;;;5071538;28;20227;-79
2021/04/28 03:22:16;;;;;;;13.50;9.02;;;5.30;99.90;;;;;;5067686;28;20203;-79
2021/04/28 03:24:43;;;;;;;8.63;7.25;;;4.90;99.90;;;;;;5067043;28;20237;-79
2021/04/28 03:27:11;;;;;;;12.55;7.22;;;4.80;99.90;;;;;;5066063;28;20218;-79
2021/04/28 03:29:37;;;;;;;11.90;8.80;;;5.30;99.90;;;;;;5064812;28;20276;-79
2021/04/28 03:32:04;;;;;;;12.13;7.70;;;4.70;99.90;;;;;;5066360;28;20227;-79
2021/04/28 03:34:30;;;;;;;11.73;8.45;;;4.90;81.80;;;;;;5065141;28;20230;-80
2021/04/28 03:36:56;;;;;;;8.77;7.75;;;;;;;;;;5062853;28;20203;-80
2021/04/28 03:39:23;;;;;;;9.68;7.28;;;4.50;99.90;;;;;;5062188;28;20230;-79
2021/04/28 03:41:50;;;;;;;10.80;8.60;;;5.10;99.90;;;;;;5066904;28;20206;-80
2021/04/28 03:44:16;;;;;;;10.68;7.60;;;4.60;86.40;;;;;;5070240;28;20214;-80
2021/04/28 03:46:42;;;;;;;13.27;7.90;;;5.10;99.90;;;;;;5070804;28;20206;-81
2021/04/28 03:49:09;;;;;;;10.93;8.90;;;;;;;;;;5062561;28;20227;-80
2021/04/28 03:51:35;;;;;;;10.27;7.95;;;5.10;99.90;;;;;;5061803;28;20226;-79
2021/04/28 03:54:02;;;;;;;12.07;7.82;;;;;;;;;;5062920;28;20210;-80
2021/04/28 03:56:28;;;;;;;8.00;7.15;;;4.50;99.90;;;;;;5063072;28;20203;-80
2021/04/28 03:58:55;;;;;;;11.73;7.90;;;4.80;84.50;;;;;;5062333;28;20238;-80
2021/04/28 04:01:21;;;;;;;14.10;8.77;;;5.10;99.90;;;;;;5062554;28;20195;-80
2021/04/28 04:03:48;;;;;;;10.77;8.70;;;4.40;99.90;;;;;;5068045;28;20218;-79
2021/04/28 04:06:14;;;;;;;11.88;8.32;;;4.40;99.90;;;;;;5066219;28;20669;-78
2021/04/28 04:08:40;;;;;;;11.70;9.05;;;4.90;99.90;;;;;;5064921;28;20238;-80
2021/04/28 04:11:06;;;;;;;11.48;8.65;;;4.80;99.90;;;;;;5062522;28;20269;-80
2021/04/28 04:13:33;;;;;;;12.65;9.48;;;4.70;99.90;;;;;;5062479;28;20203;-80
2021/04/28 04:16:00;;;;;;;9.50;7.60;;;4.70;86.30;;;;;;5063105;28;20237;-80
2021/04/28 04:18:26;;;;;;;13.55;8.52;;;;;;;;;;5064184;28;20227;-80
2021/04/28 04:20:53;;;;;;;12.38;7.57;;;4.30;99.90;;;;;;5062652;28;20202;-80
2021/04/28 04:23:19;;;;;;;10.00;8.35;;;5.00;99.90;;;;;;5063104;28;20260;-80
2021/04/28 04:25:45;;;;;;;8.80;7.90;;;4.60;99.90;;;;;;5062663;28;20214;-79
2021/04/28 04:28:11;;;;;;;11.10;8.13;;;4.50;99.90;;;;;;5062503;28;20242;-80
2021/04/28 04:30:37;;;;;;;11.73;8.15;;;4.90;99.90;;;;;;5062265;28;20256;-79
2021/04/28 04:33:04;;;;;;;9.52;8.00;;;4.70;88.30;;;;;;5062838;28;20199;-80
2021/04/28 04:35:31;;;;;;;8.82;8.00;;;;;;;;;;5062624;28;20207;-79
2021/04/28 04:37:57;;;;;;;14.98;8.88;;;;;;;;;;5062712;28;20257;-80
2021/04/28 04:40:23;;;;;;;12.05;8.80;;;4.80;99.90;;;;;;5062741;28;20230;-79
2021/04/28 04:42:50;;;;;;;10.25;8.40;;;;;;;;;;5062786;28;20203;-79
2021/04/28 04:45:16;;;;;;;10.05;7.70;;;4.90;99.90;;;;;;5067176;28;20199;-78
2021/04/28 04:47:42;;;;;;;12.35;8.60;;;4.90;99.90;;;;;;5067747;28;20222;-78
2021/04/28 04:50:11;;;;;;;12.52;8.55;;;7.40;91.20;;;;;;5068019;28;20211;-79
2021/04/28 04:52:38;;;;;;;11.30;8.55;;;;;;;;;;5063623;28;20217;-79
2021/04/28 04:55:05;;;;;;;11.52;7.90;;;4.90;90.00;;;;;;5062304;28;20642;-79
2021/04/28 04:57:32;;;;;;;11.30;9.27;;;;;;;;;;5086644;22;20289;-85
2021/04/28 04:59:58;;;;;;;11.77;8.48;;;;;;;;;;5075593;28;20227;-87
2021/04/28 05:02:25;;;;;;;13.25;8.85;;;;;;;;;;5077249;28;20203;-87
2021/04/28 05:04:51;;;;;;;20.13;8.95;;;;;;;;;;5078579;28;20199;-86
2021/04/28 05:07:19;;;;;;;16.13;9.50;;;4.80;90.60;;;;;;5078154;28;20210;-85
2021/04/28 05:09:45;;;;;;;15.35;9.10;;;;;;;;;;5078795;28;20207;-87
2021/04/28 05:12:12;;;;;;;12.38;8.02;;;;;;;;;;5079383;28;20252;-87
2021/04/28 05:14:38;;;;;;;13.52;9.00;;;;;;;;;;5071056;28;20273;-84
2021/04/28 05:17:05;;;;;;;11.40;8.55;;;5.10;99.90;;;;;;5065987;28;20207;-88
2021/04/28 05:19:31;;;;;;;17.85;10.35;;;5.20;99.90;;;;;;5078478;28;20287;-87
2021/04/28 05:21:58;;;;;;;16.13;9.63;;;4.90;99.90;;;;;;5078418;28;20202;-85
2021/04/28 05:24:25;;;;;;;16.17;9.45;;;4.90;99.90;;;;;;5078120;28;20187;-85
2021/04/28 05:26:51;;;;;;;9.57;8.13;;;;;;;;;;5078371;28;20199;-85
2021/04/28 05:29:18;;;;;;;13.27;10.20;;;;;;;;;;5076483;28;20301;-85
2021/04/28 05:31:44;;;;;;;16.05;9.30;;;5.50;99.90;;;;;;5076599;28;20455;-85
2021/04/28 05:34:10;;;;;;;14.70;10.65;;;5.40;99.90;;;;;;5076882;28;20211;-85
2021/04/28 05:36:42;;;;;;;16.33;11.20;;;;;;;;;;5078197;28;20223;-86
2021/04/28 05:39:11;;;;;;;14.43;10.00;;;;;;;;;;5077153;28;20286;-84
2021/04/28 05:41:39;;;;;;;14.18;9.57;;;5.50;90.50;;;;;;5073279;28;20205;-84
2021/04/28 05:44:06;;;;;;;21.40;10.73;;;;;;;;;;5071354;28;20203;-87
2021/04/28 05:46:33;;;;;;;17.75;11.48;;;;;;;;;;5073030;28;20203;-84
2021/04/28 05:48:59;;;;;;;15.32;10.30;;;;;;;;;;5078292;28;20230;-85
2021/04/28 05:51:26;;;;;;;12.45;9.20;;;;;;;;;;5077800;28;20215;-85
2021/04/28 05:53:52;;;;;;;15.73;10.70;;;;;;;;;;5078361;28;20187;-87
2021/04/28 05:56:19;;;;;;;14.90;10.10;;;;;;;;;;5077859;28;20274;-86
2021/04/28 05:58:46;;;;;;;13.88;10.77;;;5.90;89.90;;;;;;5068567;28;20227;-84
2021/04/28 06:01:12;;;;;;;13.85;9.75;;;;;;;;;;5068099;28;20214;-84
2021/04/28 06:03:39;;;;;;;16.05;10.27;;;;;;;;;;5072480;28;20237;-84
2021/04/28 06:06:05;;;;;;;13.52;10.85;;;6.40;99.90;;;;;;5079728;28;20211;-83
2021/04/28 06:08:32;;;;;;;12.88;9.82;;;;;;;;;;5079638;28;20229;-81
2021/04/28 06:10:58;;;;;;;17.08;10.68;;;;;;;;;;5079393;28;20254;-82
2021/04/28 06:13:25;;;;;;;19.83;13.20;;;6.50;99.90;;;;;;5079904;28;20194;-82
2021/04/28 06:15:52;;;;;;;13.15;9.43;;;6.60;99.90;;;;;;5079671;28;20187;-83
2021/04/28 06:18:18;;;;;;;15.70;9.60;;;;;;;;;;5075885;28;20280;-84
2021/04/28 06:20:44;;;;;;;13.25;10.07;;;6.90;99.90;;;;;;5070221;28;20195;-85
2021/04/28 06:23:10;;;;;;;14.98;10.05;;;7.20;99.90;;;;;;5068948;28;20439;-85
2021/04/28 06:25:37;;;;;;;21.52;11.70;;;;;;;;;;5080199;28;20195;-85
2021/04/28 06:28:04;;;;;;;14.40;9.95;;;7.40;99.90;;;;;;5075248;28;20227;-85
2021/04/28 06:30:30;;;;;;;15.20;10.85;;;7.00;99.90;;;;;;5066765;28;20195;-86
2021/04/28 06:32:57;;;;;;;13.48;10.93;;;7.40;99.90;;;;;;5066941;28;20451;-83
2021/04/28 06:35:23;;;;;;;15.15;10.15;;;7.30;99.90;;;;;;5075398;28;20207;-83
2021/04/28 06:37:50;;;;;;;14.57;10.70;;;7.50;99.90;;;;;;5074887;28;20415;-84
2021/04/28 06:40:16;;;;;;;16.45;11.38;;;7.10;99.90;;;;;;5067276;28;20842;-86
2021/04/28 06:42:43;;;;;;;20.58;10.98;;;;;;;;;;5064560;28;20199;-85
2021/04/28 06:45:10;;;;;;;19.48;11.45;;;6.90;99.90;;;;;;5063404;28;20574;-86
2021/04/28 06:47:38;;;;;;;22.33;11.35;;;7.40;99.90;;;;;;5071157;28;20207;-85
2021/04/28 06:50:07;;;;;;;12.75;10.80;;;7.60;99.90;;;;;;5075137;28;20210;-84
2021/04/28 06:52:33;;;;;;;13.15;11.00;;;;;;;;;;5072996;28;20229;-86
2021/04/28 06:55:00;;;;;;;14.48;10.52;;;7.60;99.90;;;;;;5067308;28;20145;-83
2021/04/28 06:57:26;;;;;;;20.00;11.07;;;;;;;;;;5066338;28;20444;-81
2021/04/28 06:59:54;;;;;;;20.20;12.20;;;7.70;99.90;;;;;;5066885;28;20211;-82
2021/04/28 07:02:20;;;;;;;22.27;11.00;;;7.80;99.90;;;;;;5064694;28;20434;-82
2021/04/28 07:04:46;;;;;;;14.73;10.25;;;7.80;99.90;;;;;;5065223;28;20749;-81
2021/04/28 07:07:13;;;;;;;17.53;11.13;;;8.50;99.90;;;;;;5063394;28;20211;-84
2021/04/28 07:09:40;;;;;;;17.63;10.70;;;;;;;;;;5062277;28;20448;-82
2021/04/28 07:12:06;;;;;;;17.80;12.20;;;8.50;99.90;;;;;;5066528;28;20222;-81
2021/04/28 07:14:33;;;;;;;17.70;10.63;;;8.50;99.90;;;;;;5064315;28;20460;-81
2021/04/28 07:16:59;;;;;;;17.43;12.73;;;;;;;;;;5066167;28;20203;-83
2021/04/28 07:19:25;;;;;;;19.27;10.37;;;8.40;99.90;;;;;;5076050;28;20476;-83
2021/04/28 07:21:52;;;;;;;13.97;10.80;;;;;;;;;;5078528;28;20429;-82
2021/04/28 07:24:19;;;;;;;18.83;11.80;;;8.90;99.90;;;;;;5078840;28;20476;-82
2021/04/28 07:26:45;;;;;;;19.05;11.00;;;8.00;99.90;;;;;;5079573;28;20423;-82
2021/04/28 07:29:12;;;;;;;14.57;11.18;;;8.90;99.90;;;;;;5079214;28;20215;-84
2021/04/28 07:31:38;;;;;;;14.83;10.73;;;;;;;;;;5078822;28;20223;-82
2021/04/28 07:34:05;;;;;;;15.55;10.45;;;;;;;;;;5078201;28;20397;-82
2021/04/28 07:36:31;;;;;;;15.27;10.53;;;8.50;99.90;;;;;;5076372;28;20654;-84
2021/04/28 07:38:57;;;;;;;12.40;10.00;;;;;;;;;;5069838;28;20444;-82
2021/04/28 07:41:25;;;;;;;19.50;10.60;;;8.90;99.90;;;;;;5071781;28;20490;-83
2021/04/28 07:43:51;;;;;;;19.80;12.07;;;8.70;99.90;;;;;;5074560;28;20270;-83
2021/04/28 07:46:18;;;;;;;17.83;10.60;;;;;;;;;;5070493;28;20427;-83
2021/04/28 07:48:44;;;;;;;15.13;11.53;;;9.50;99.90;;;;;;5064532;28;20465;-83
2021/04/28 07:51:12;;;;;;;16.73;10.53;;;;;;;;;;5062200;28;20496;-83
2021/04/28 07:53:38;;;;;;;16.07;11.60;;;9.10;99.90;;;;;;5063317;28;20449;-83
2021/04/28 07:56:05;;;;;;;16.10;10.13;;;9.80;99.90;;;;;;5062136;28;20448;-83
2021/04/28 07:58:32;;;;;;;14.47;11.30;;;;;;;;;;5066286;28;20542;-82
2021/04/28 08:00:59;;;;;;;17.37;10.83;;;;;;;;;;5067258;28;20441;-83
2021/04/28 08:03:25;;;;;;;18.63;10.47;;;;;;;;;;5068130;28;20449;-82
2021/04/28 08:05:52;;;;;;;11.43;10.20;;;;;;;;;;5065182;28;20452;-80
2021/04/28 08:08:18;;;;;;;17.73;10.67;;;;;;;;;;5067357;28;20495;-81
2021/04/28 08:10:45;;;;;;;14.50;9.70;;;;;;;;;;5070563;28;20442;-82
2021/04/28 08:13:12;;;;;;;16.20;13.70;;;;;;;;;;5068850;28;20445;-84
2021/04/28 08:15:40;;;;;;;22.23;10.60;;;10.50;71.40;;;;;;5061523;28;20452;-85
2021/04/28 08:18:06;;;;;;;14.90;10.97;;;10.20;98.70;;;;;;5061134;28;20477;-85
2021/04/28 08:20:35;;;;;;;12.20;9.40;;;10.70;99.40;;;;;;5064085;28;20484;-83
2021/04/28 08:23:01;;;;;;;15.23;11.73;;;10.60;98.50;;;;;;5066299;28;20461;-83
2021/04/28 08:25:28;;;;;;;18.70;11.23;;;;;;;;;;5069699;28;20445;-81
2021/04/28 08:27:54;;;;;;;15.50;10.90;;;10.20;98.50;;;;;;5070706;28;20461;-82
2021/04/28 08:30:21;;;;;;;19.17;11.20;;;10.60;98.40;;;;;;5071202;28;20442;-83
2021/04/28 08:32:48;;;;;;;15.77;10.37;;;11.10;72.00;;;;;;5068769;28;21014;-82
2021/04/28 08:35:15;;;;;;;18.80;12.10;;;11.40;97.80;;;;;;5072147;28;20416;-82
2021/04/28 08:37:41;;;;;;;18.57;10.17;;;11.00;98.40;;;;;;5070721;28;20840;-83
2021/04/28 08:40:08;;;;;;;22.53;11.07;;;;;;;;;;5073181;28;20472;-84
2021/04/28 08:42:35;;;;;;;19.33;11.07;;;11.40;97.70;;;;;;5073703;28;20515;-82
2021/04/28 08:45:01;;;;;;;13.47;10.70;;;11.80;98.70;;;;;;5071437;28;20475;-82
2021/04/28 08:47:28;;;;;;;13.60;10.80;;;;;;;;;;5075879;28;20911;-82
2021/04/28 08:49:55;;;;;;;17.40;10.60;;;11.70;69.40;;;;;;5071563;28;20446;-84
2021/04/28 08:52:24;;;;;;;17.83;10.20;;;11.70;69.30;;;;;;5065523;28;20481;-84
2021/04/28 08:54:50;;;;;;;18.63;11.03;;;;;;;;;;5063396;28;20446;-84
2021/04/28 08:57:19;;;;;;;17.17;11.00;;;;;;;;;;5063886;28;20540;-84
2021/04/28 08:59:48;;;;;;;13.70;9.93;;;12.10;72.80;;;;;;5063272;28;20937;-84
2021/04/28 09:02:17;;;;;;;20.77;11.93;;;12.30;70.50;;;;;;5065324;28;20441;-84
2021/04/28 09:04:44;;;;;;;15.83;11.23;;;;;;;;;;5075524;28;20438;-84
2021/04/28 09:07:11;;;;;;;16.40;10.97;;;12.40;71.20;;;;;;5070868;28;20445;-82
2021/04/28 09:09:37;;;;;;;17.00;11.63;;;12.10;97.60;;;;;;5063870;28;20816;-84
2021/04/28 09:12:04;;;;;;;13.93;10.70;;;;;;;;;;5064461;28;20469;-84
2021/04/28 09:14:32;;;;;;;14.70;11.20;;;12.20;98.20;;;;;;5063550;28;20479;-83
2021/04/28 09:17:01;;;;;;;16.00;10.70;;;12.20;97.00;;;;;;5063488;28;20454;-82
2021/04/28 09:19:31;;;;;;;13.93;10.60;;;12.60;72.60;;;;;;5063132;28;20495;-83
2021/04/28 09:22:01;;;;;;;16.40;10.37;;;12.70;72.10;;;;;;5066472;28;20469;-82
2021/04/28 09:24:29;;;;;;;16.03;10.73;;;12.20;78.20;;;;;;5074992;28;20456;-82
2021/04/28 09:26:57;;;;;;;16.53;10.93;;;12.90;96.90;;;;;;5065172;28;20959;-84
2021/04/28 09:29:26;;;;;;;15.70;10.43;;;12.90;67.30;;;;;;5061458;28;20469;-84
2021/04/28 09:32:00;;;;;;;23.53;11.80;;;12.30;99.90;;;;;;5061725;28;20530;-83
2021/04/28 09:34:28;;;;;;;14.10;10.87;;;13.00;69.70;;;;;;5061575;28;20442;-83
2021/04/28 09:37:06;;;;;;;21.13;10.63;;;13.40;97.30;;;;;;5061588;28;20457;-82
2021/04/28 09:39:41;;;;;;;13.77;10.43;;;13.60;99.90;;;;;;5061519;28;20469;-83
2021/04/28 09:42:08;;;;;;;14.00;10.53;;;;;;;;;;5061458;28;20426;-83
2021/04/28 09:44:37;;;;;;;14.93;10.43;;;13.70;98.40;;;;;;5062312;28;20484;-83
2021/04/28 09:47:09;;;;;;;19.20;11.20;;;13.60;69.10;;;;;;5071401;28;20438;-83
2021/04/28 09:49:48;;;;;;;14.50;9.80;;;13.80;94.80;;;;;;5074089;28;20492;-82
2021/04/28 09:52:15;;;;;;;17.47;12.10;;;;;;;;;;5071569;28;20487;-83
2021/04/28 09:54:43;;;;;;;21.87;12.20;;;13.80;65.90;;;;;;5067231;28;20445;-84
2021/04/28 09:57:10;;;;;;;17.40;11.23;;;;;;;;;;5063214;28;20449;-84
2021/04/28 09:59:44;;;;;;;19.40;13.03;;;14.10;94.00;;;;;;5060638;28;20523;-83
2021/04/28 10:02:28;;;;;;;16.13;10.83;;;13.60;99.90;;;;;;5063003;28;20901;-84
2021/04/28 10:04:55;;;;;;;16.53;11.07;;;;;;;;;;5067997;28;20461;-85
2021/04/28 10:07:25;;;;;;;15.33;10.20;;;13.90;98.30;;;;;;5061775;28;20835;-83
2021/04/28 10:09:52;;;;;;;15.47;10.43;;;14.40;96.20;;;;;;5062122;28;20473;-85
2021/04/28 10:12:20;;;;;;;21.40;11.53;;;14.30;99.90;;;;;;5062893;28;20473;-85
2021/04/28 10:14:46;;;;;;;15.80;10.70;;;;;;;;;;5067157;28;20445;-84
2021/04/28 10:17:13;;;;;;;13.33;10.30;;;14.50;61.80;;;;;;5069592;28;20475;-82
2021/04/28 10:19:40;;;;;;;12.50;10.63;;;;;;;;;;5064004;28;20465;-83
2021/04/28 10:22:09;;;;;;;16.70;10.60;;;14.70;93.60;;;;;;5061228;28;20441;-83
2021/04/28 10:24:36;;;;;;;22.90;11.90;;;14.70;63.50;;;;;;5060490;28;20944;-84
2021/04/28 10:27:03;;;;;;;13.07;9.57;;;15.10;98.10;;;;;;5063164;28;20975;-84
2021/04/28 10:29:33;;;;;;;14.93;10.13;;;15.00;92.90;;;;;;5063198;28;20481;-84
2021/04/28 10:31:59;;;;;;;22.03;11.53;;;15.20;98.80;;;;;;5061908;28;20991;-82
2021/04/28 10:34:30;;;;;;;15.60;12.30;;;15.10;93.20;;;;;;5060869;28;20538;-84
2021/04/28 10:36:58;;;;;;;14.17;10.13;;;15.00;64.00;;;;;;5061228;28;20434;-83
2021/04/28 10:39:27;;;;;;;16.60;10.83;;;15.00;99.90;;;;;;5060996;28;20473;-83
2021/04/28 10:41:54;;;;;;;15.10;9.93;;;14.80;92.90;;;;;;5063352;28;20441;-84
2021/04/28 10:44:41;;;;;;;18.10;11.50;;;15.00;65.00;;;;;;5070093;28;20456;-84
2021/04/28 10:47:34;;;;;;;15.83;10.70;;;15.00;98.60;;;;;;5061145;28;20437;-84
2021/04/28 10:50:19;;;;;;;15.60;11.13;;;15.30;63.90;;;;;;5062009;28;20450;-84
2021/04/28 10:52:48;;;;;;;16.57;11.00;;;15.30;63.10;;;;;;5070462;28;20504;-82
2021/04/28 10:55:39;;;;;;;20.33;12.03;;;15.50;63.60;;;;;;5067715;28;20456;-84
2021/04/28 10:58:05;;;;;;;18.30;11.47;;;;;;;;;;5089931;22;20477;-80
2021/04/28 11:00:32;;;;;;;13.50;9.30;;;15.70;92.50;;;;;;5057684;28;20936;-80
2021/04/28 11:03:00;;;;;;;18.93;10.73;;;15.70;91.90;;;;;;5056885;28;20473;-80
2021/04/28 11:05:27;;;;;;;13.23;10.53;;;15.70;60.80;;;;;;5056623;28;20479;-80
2021/04/28 11:07:57;;;;;;;19.43;11.87;;;15.70;92.00;;;;;;5057434;28;20477;-80
2021/04/28 11:10:32;;;;;;;18.23;12.20;;;15.70;78.90;;;;;;5057908;28;20909;-80
2021/04/28 11:13:09;;;;;;;15.27;10.20;;;16.00;97.60;;;;;;5062833;28;20828;-79
2021/04/28 11:15:51;;;;;;;20.33;11.90;;;15.90;91.50;;;;;;5057559;28;20425;-80
2021/04/28 11:18:27;;;;;;;19.83;11.13;;;16.20;92.80;;;;;;5057680;28;20496;-80
2021/04/28 11:21:26;;;;;;;17.43;11.73;;;16.10;97.90;;;;;;5057505;28;20430;-80
2021/04/28 11:24:10;;;;;;;13.43;10.13;;;15.90;98.10;;;;;;5056857;28;20744;-80
2021/04/28 11:26:37;;;;;;;16.17;10.67;;;16.30;93.00;;;;;;5056302;28;20518;-80
2021/04/28 11:29:05;;;;;;;14.50;9.87;;;16.00;92.40;;;;;;5057207;28;20489;-80
2021/04/28 11:31:44;;;;;;;16.03;11.07;;;15.80;92.40;;;;;;5056940;28;20496;-80
2021/04/28 11:34:32;;;;;;;14.43;11.20;;;16.40;97.60;;;;;;5057355;28;20445;-80
2021/04/28 11:37:00;;;;;;;13.83;10.40;;;16.70;94.10;;;;;;5056144;28;20478;-80
2021/04/28 11:39:36;;;;;;;13.33;10.50;;;16.60;93.10;;;;;;5056871;28;20480;-80
2021/04/28 11:42:07;;;;;;;14.40;10.90;;;16.10;98.60;;;;;;5057292;28;20954;-80
2021/04/28 11:44:35;;;;;;;15.70;10.60;;;16.60;97.80;;;;;;5057221;28;21002;-80
2021/04/28 11:47:10;;;;;;;18.03;10.57;;;16.40;61.40;;;;;;5057261;28;20460;-81
2021/04/28 11:49:40;;;;;;;12.33;10.23;;;16.40;93.30;;;;;;5057580;28;20465;-80
2021/04/28 11:52:06;;;;;;;12.60;10.73;;;16.80;98.00;;;;;;5059181;28;20488;-80
2021/04/28 11:54:34;;;;;;;14.60;10.97;;;16.60;92.40;;;;;;5058404;28;20477;-80
2021/04/28 11:57:00;;;;;;;13.53;9.63;;;16.50;96.90;;;;;;5057683;28;20544;-80
2021/04/28 11:59:27;;;;;;;11.37;8.63;;;16.40;70.90;;;;;;5056526;28;20488;-80
2021/04/28 12:01:57;;;;;;;15.80;8.73;;;16.30;91.50;;;;;;5057225;28;20449;-80
2021/04/28 12:04:31;;;;;;;10.53;9.23;;;16.70;61.10;;;;;;5057072;28;20454;-82
2021/04/28 12:06:58;;;;;;;13.50;9.57;;;17.10;97.90;;;;;;5055773;28;20437;-80
2021/04/28 12:09:41;;;;;;;10.60;8.43;;;16.60;95.10;;;;;;5056796;28;20505;-81
2021/04/28 12:12:16;;;;;;;14.10;9.03;;;16.60;97.50;;;;;;5057894;28;20541;-80
2021/04/28 12:14:44;;;;;;;15.60;9.27;;;16.70;98.10;;;;;;5056420;28;20518;-80
2021/04/28 12:17:10;;;;;;;12.47;8.30;;;16.40;90.60;;;;;;5056312;28;20453;-80
2021/04/28 12:19:38;;;;;;;14.83;9.07;;;16.90;58.30;;;;;;5055768;28;20519;-81
2021/04/28 12:22:06;;;;;;;17.70;9.00;;;16.90;58.70;;;;;;5056834;28;20441;-80
2021/04/28 12:24:33;;;;;;;11.03;9.03;;;16.70;87.80;;;;;;5056837;28;20948;-81
2021/04/28 12:27:08;;;;;;;11.93;8.57;;;17.60;97.30;;;;;;5058374;28;20441;-80
2021/04/28 12:29:36;;;;;;;11.97;8.93;;;17.50;93.10;;;;;;5065942;28;20473;-80
2021/04/28 12:32:03;;;;;;;10.90;8.40;;;17.70;90.00;;;;;;5057239;28;20836;-81
2021/04/28 12:34:30;;;;;;;11.40;7.57;;;;;;;;;;5057580;28;20496;-80
2021/04/28 12:37:07;;;;;;;10.00;7.60;;;17.40;58.80;;;;;;5057853;28;20449;-81
2021/04/28 12:39:34;;;;;;;12.90;8.77;;;18.60;97.60;;;;;;5066362;28;20470;-79
2021/04/28 12:42:00;;;;;;;15.07;9.60;;;17.80;96.60;;;;;;5069186;28;20460;-81
2021/04/28 12:44:27;;;;;;;12.10;9.53;;;17.80;95.70;;;;;;5062124;28;20948;-80
2021/04/28 12:46:55;;;;;;;10.70;8.00;;;17.30;97.50;;;;;;5060749;28;20445;-81
2021/04/28 12:49:23;;;;;;;13.00;9.13;;;17.30;97.60;;;;;;5059631;28;20480;-80
2021/04/28 12:51:50;;;;;;;12.70;9.30;;;;;;;;;;5059221;28;20448;-80
2021/04/28 12:54:30;;;;;;;10.60;8.43;;;17.50;91.90;;;;;;5058129;28;20598;-80
2021/04/28 12:56:57;;;;;;;13.37;8.33;;;16.80;97.40;;;;;;5059547;28;20433;-81
2021/04/28 12:59:24;;;;;;;10.90;9.30;;;16.90;96.00;;;;;;5059323;28;20481;-80
2021/04/28 13:02:01;;;;;;;14.93;9.13;;;17.70;97.50;;;;;;5060666;28;20465;-80
2021/04/28 13:04:28;;;;;;;9.23;8.30;;;16.80;97.30;;;;;;5057921;28;20441;-80
2021/04/28 13:07:11;;;;;;;12.63;8.57;;;17.60;93.70;;;;;;5057866;28;21030;-80